createdAt,value
2017-12-23T00:00:08.756Z,82.10
2017-12-23T00:02:38.764Z,81.40
2017-12-23T00:05:06.905Z,82.60
2017-12-23T00:07:35.096Z,82.60
2017-12-23T00:10:03.640Z,82.70
2017-12-23T00:12:31.909Z,82.80
2017-12-23T00:15:00.817Z,83.40
2017-12-23T00:17:29.720Z,83.20
2017-12-23T00:19:57.887Z,83.30
2017-12-23T00:22:26.106Z,83.40
2017-12-23T00:24:54.259Z,83.30
2017-12-23T00:27:22.412Z,82.80
2017-12-23T00:29:51.388Z,83.00
2017-12-23T00:32:19.575Z,83.60
2017-12-23T00:34:47.708Z,84.20
2017-12-23T00:37:15.883Z,83.80
2017-12-23T00:39:44.801Z,83.60
2017-12-23T00:42:12.984Z,83.60
2017-12-23T00:44:41.141Z,83.90
2017-12-23T00:47:10.084Z,84.70
2017-12-23T00:49:38.229Z,84.70
2017-12-23T00:52:07.629Z,84.40
2017-12-23T00:54:35.768Z,84.30
2017-12-23T00:57:04.525Z,84.20
2017-12-23T00:59:32.688Z,84.10
2017-12-23T01:02:00.916Z,83.80
2017-12-23T01:04:29.847Z,84.30
2017-12-23T01:06:58.035Z,83.90
2017-12-23T01:09:26.208Z,83.40
2017-12-23T01:11:54.364Z,83.20
2017-12-23T01:14:22.513Z,82.80
2017-12-23T01:16:51.456Z,83.80
2017-12-23T01:19:19.676Z,83.80
2017-12-23T01:21:48.631Z,82.80
2017-12-23T01:24:16.792Z,82.80
2017-12-23T01:26:44.975Z,82.40
2017-12-23T01:29:13.129Z,82.50
2017-12-23T01:31:41.313Z,82.50
2017-12-23T01:34:09.492Z,83.50
2017-12-23T01:36:37.668Z,83.60
2017-12-23T01:39:05.835Z,83.60
2017-12-23T01:41:33.972Z,81.40
2017-12-23T01:44:03.104Z,81.00
2017-12-23T01:46:31.245Z,81.00
2017-12-23T01:49:00.208Z,81.30
2017-12-23T01:51:28.365Z,81.30
2017-12-23T01:53:56.584Z,82.80
2017-12-23T01:56:24.725Z,82.60
2017-12-23T01:58:52.884Z,82.50
2017-12-23T02:01:21.019Z,82.60
2017-12-23T02:03:49.951Z,83.90
2017-12-23T02:06:18.101Z,83.90
2017-12-23T02:08:46.274Z,84.10
2017-12-23T02:11:14.411Z,84.20
2017-12-23T02:13:43.366Z,83.70
2017-12-23T02:16:11.637Z,83.70
2017-12-23T02:18:39.832Z,84.30
2017-12-23T02:21:07.980Z,84.60
2017-12-23T02:23:36.164Z,83.80
2017-12-23T02:26:04.318Z,83.40
2017-12-23T02:28:32.496Z,83.70
2017-12-23T02:31:00.649Z,83.70
2017-12-23T02:33:29.608Z,83.70
2017-12-23T02:35:57.764Z,83.60
2017-12-23T02:38:25.965Z,83.60
2017-12-23T02:40:54.105Z,83.80
2017-12-23T02:43:22.268Z,83.40
2017-12-23T02:45:50.434Z,83.70
2017-12-23T02:48:18.594Z,83.90
2017-12-23T02:50:46.724Z,84.40
2017-12-23T02:53:14.902Z,84.40
2017-12-23T02:55:43.056Z,84.10
2017-12-23T02:58:11.231Z,84.20
2017-12-23T03:00:39.413Z,84.30
2017-12-23T03:03:07.612Z,84.40
2017-12-23T03:05:35.759Z,84.40
2017-12-23T03:08:04.349Z,84.20
2017-12-23T03:10:33.287Z,83.60
2017-12-23T03:13:01.607Z,83.50
2017-12-23T03:15:30.772Z,84.60
2017-12-23T03:17:58.954Z,84.60
2017-12-23T03:20:27.081Z,84.60
2017-12-23T03:22:56.012Z,85.60
2017-12-23T03:25:24.156Z,85.60
2017-12-23T03:27:53.092Z,86.10
2017-12-23T03:30:21.249Z,86.10
2017-12-23T03:32:49.413Z,86.00
2017-12-23T03:35:18.296Z,85.70
2017-12-23T03:37:47.229Z,85.80
2017-12-23T03:40:15.405Z,85.90
2017-12-23T03:42:43.565Z,85.60
2017-12-23T03:45:11.701Z,86.00
2017-12-23T03:47:40.641Z,85.20
2017-12-23T03:50:08.789Z,85.20
2017-12-23T03:52:36.976Z,84.80
2017-12-23T03:55:05.268Z,84.50
2017-12-23T03:57:33.413Z,84.30
2017-12-23T04:00:01.585Z,84.40
2017-12-23T04:02:29.740Z,84.50
2017-12-23T04:04:57.913Z,84.50
2017-12-23T04:07:26.814Z,85.00
2017-12-23T04:09:54.983Z,85.00
2017-12-23T04:12:23.882Z,84.70
2017-12-23T04:14:52.073Z,84.70
2017-12-23T04:17:20.215Z,84.60
2017-12-23T04:19:48.457Z,85.50
2017-12-23T04:22:16.745Z,85.20
2017-12-23T04:24:45.687Z,84.90
2017-12-23T04:27:13.828Z,85.60
2017-12-23T04:29:42.020Z,84.90
2017-12-23T04:32:10.156Z,84.50
2017-12-23T04:34:39.097Z,83.90
2017-12-23T04:37:07.272Z,84.00
2017-12-23T04:39:35.440Z,84.00
2017-12-23T04:42:03.846Z,84.00
2017-12-23T04:44:32.034Z,84.20
2017-12-23T04:47:00.176Z,83.90
2017-12-23T04:49:28.357Z,83.70
2017-12-23T04:51:56.522Z,83.40
2017-12-23T04:54:24.728Z,83.60
2017-12-23T04:56:52.880Z,83.70
2017-12-23T04:59:21.048Z,83.90
2017-12-23T05:01:49.192Z,84.30
2017-12-23T05:04:17.371Z,84.30
2017-12-23T05:06:45.520Z,84.60
2017-12-23T05:09:13.721Z,84.30
2017-12-23T05:11:41.880Z,83.60
2017-12-23T05:14:10.065Z,82.90
2017-12-23T05:16:38.219Z,82.10
2017-12-23T05:19:07.168Z,81.50
2017-12-23T05:21:35.347Z,81.30
2017-12-23T05:24:04.401Z,81.30
2017-12-23T05:26:33.693Z,81.40
2017-12-23T05:29:01.866Z,81.80
2017-12-23T05:31:30.021Z,83.00
2017-12-23T05:33:58.213Z,83.50
2017-12-23T05:36:26.358Z,83.40
2017-12-23T05:38:55.313Z,83.40
2017-12-23T05:41:23.468Z,83.30
2017-12-23T05:43:51.648Z,83.40
2017-12-23T05:46:19.788Z,83.90
2017-12-23T05:48:48.714Z,83.50
2017-12-23T05:51:16.869Z,83.50
2017-12-23T05:53:45.076Z,82.90
2017-12-23T05:56:13.231Z,82.90
2017-12-23T05:58:41.443Z,82.60
2017-12-23T06:01:09.584Z,82.20
2017-12-23T06:03:37.800Z,82.60
2017-12-23T06:06:05.936Z,82.70
2017-12-23T06:08:34.104Z,83.00
2017-12-23T06:11:02.265Z,83.30
2017-12-23T06:13:30.409Z,83.10
2017-12-23T06:15:58.725Z,83.30
2017-12-23T06:18:26.881Z,83.60
2017-12-23T06:20:55.092Z,83.80
2017-12-23T06:23:23.226Z,84.20
2017-12-23T06:25:52.722Z,84.20
2017-12-23T06:28:21.636Z,84.30
2017-12-23T06:30:49.797Z,84.30
2017-12-23T06:33:17.940Z,84.60
2017-12-23T06:35:46.902Z,84.10
2017-12-23T06:38:15.058Z,84.10
2017-12-23T06:40:43.229Z,84.00
2017-12-23T06:43:11.384Z,83.90
2017-12-23T06:45:39.560Z,84.40
2017-12-23T06:48:07.752Z,84.40
2017-12-23T06:50:35.913Z,84.40
2017-12-23T06:53:04.096Z,84.20
2017-12-23T06:55:32.255Z,84.40
2017-12-23T06:58:00.394Z,84.90
2017-12-23T07:00:28.572Z,85.30
2017-12-23T07:02:56.709Z,85.00
2017-12-23T07:05:24.890Z,85.00
2017-12-23T07:07:53.025Z,85.00
2017-12-23T07:10:21.188Z,84.80
2017-12-23T07:12:49.408Z,85.20
2017-12-23T07:15:17.602Z,85.50
2017-12-23T07:17:45.752Z,85.40
2017-12-23T07:20:13.925Z,85.50
2017-12-23T07:22:42.095Z,85.90
2017-12-23T07:25:10.292Z,86.20
2017-12-23T07:27:38.432Z,86.20
2017-12-23T07:30:06.604Z,86.30
2017-12-23T07:32:34.735Z,86.00
2017-12-23T07:35:02.895Z,85.50
2017-12-23T07:37:31.044Z,85.80
2017-12-23T07:39:59.196Z,85.80
2017-12-23T07:42:27.328Z,85.10
2017-12-23T07:44:55.551Z,85.20
2017-12-23T07:47:23.699Z,85.10
2017-12-23T07:49:51.869Z,85.30
2017-12-23T07:52:20.788Z,85.30
2017-12-23T07:54:48.944Z,85.40
2017-12-23T07:57:17.846Z,85.50
2017-12-23T07:59:46.769Z,85.80
2017-12-23T08:02:14.910Z,85.80
2017-12-23T08:04:43.093Z,85.50
2017-12-23T08:07:11.248Z,85.70
2017-12-23T08:09:39.471Z,84.80
2017-12-23T08:12:07.620Z,84.40
2017-12-23T08:14:35.805Z,84.70
2017-12-23T08:17:04.358Z,85.20
2017-12-23T08:19:33.281Z,84.50
2017-12-23T08:22:01.484Z,84.50
2017-12-23T08:24:29.712Z,84.90
2017-12-23T08:26:57.875Z,85.20
2017-12-23T08:29:26.777Z,84.50
2017-12-23T08:31:54.993Z,84.50
2017-12-23T08:34:23.163Z,83.90
2017-12-23T08:36:51.321Z,84.00
2017-12-23T08:39:19.573Z,83.80
2017-12-23T08:41:48.675Z,83.50
2017-12-23T08:44:16.820Z,83.60
2017-12-23T08:46:44.989Z,83.80
2017-12-23T08:49:14.276Z,83.40
2017-12-23T08:51:42.752Z,83.30
2017-12-23T08:54:12.292Z,82.10
2017-12-23T08:56:40.549Z,82.60
2017-12-23T08:59:08.684Z,83.00
2017-12-23T09:01:40.436Z,82.40
2017-12-23T09:04:09.635Z,82.50
2017-12-23T09:06:39.668Z,82.30
2017-12-23T09:09:11.202Z,82.30
2017-12-23T09:11:39.748Z,80.00
2017-12-23T09:14:11.940Z,79.60
2017-12-23T09:16:40.139Z,80.20
2017-12-23T09:19:10.609Z,80.20
2017-12-23T09:21:39.822Z,80.10
2017-12-23T09:24:10.248Z,80.10
2017-12-23T09:26:39.194Z,80.20
2017-12-23T09:29:12.364Z,80.20
2017-12-23T09:31:42.597Z,80.30
2017-12-23T09:34:10.810Z,80.20
2017-12-23T09:36:39.168Z,80.10
2017-12-23T09:39:10.159Z,79.70
2017-12-23T09:41:39.104Z,79.90
2017-12-23T09:44:08.340Z,79.80
2017-12-23T09:49:05.913Z,79.40
2017-12-23T09:51:34.064Z,81.30
2017-12-23T09:54:02.212Z,79.80
2017-12-23T09:56:31.786Z,79.70
2017-12-23T09:58:59.976Z,79.30
2017-12-23T10:01:28.865Z,79.80
2017-12-23T10:03:57.913Z,79.90
2017-12-23T10:06:28.320Z,80.70
2017-12-23T10:08:57.344Z,81.10
2017-12-23T10:11:26.117Z,79.90
2017-12-23T10:13:56.159Z,79.80
2017-12-23T10:16:25.359Z,79.80
2017-12-23T10:18:54.317Z,79.00
2017-12-23T10:21:22.469Z,79.00
2017-12-23T10:23:50.646Z,79.30
2017-12-23T10:26:18.815Z,78.30
2017-12-23T10:28:48.820Z,77.30
2017-12-23T10:31:17.077Z,77.90
2017-12-23T10:33:46.014Z,77.80
2017-12-23T10:36:14.145Z,77.70
2017-12-23T10:38:42.343Z,77.90
2017-12-23T10:41:11.332Z,77.20
2017-12-23T10:43:39.528Z,77.20
2017-12-23T10:46:07.832Z,77.90
2017-12-23T10:48:36.001Z,78.90
2017-12-23T10:51:04.527Z,77.90
2017-12-23T10:53:32.802Z,78.10
2017-12-23T10:56:02.088Z,77.20
2017-12-23T10:58:31.056Z,78.60
2017-12-23T11:00:59.312Z,78.50
2017-12-23T11:03:27.478Z,78.10
2017-12-23T11:05:56.222Z,78.30
2017-12-23T11:08:25.386Z,77.20
2017-12-23T11:10:54.866Z,78.20
2017-12-23T11:13:26.623Z,78.30
2017-12-23T11:15:56.294Z,79.20
2017-12-23T11:18:25.232Z,79.30
2017-12-23T11:20:55.316Z,79.50
2017-12-23T11:23:24.291Z,79.20
2017-12-23T11:25:53.032Z,79.20
2017-12-23T11:28:21.315Z,79.60
2017-12-23T11:30:49.507Z,79.60
2017-12-23T11:33:19.969Z,79.90
2017-12-23T11:35:49.672Z,79.50
2017-12-23T11:38:19.215Z,79.70
2017-12-23T11:40:48.652Z,79.60
2017-12-23T11:43:17.861Z,79.60
2017-12-23T11:45:47.581Z,79.50
2017-12-23T11:48:16.705Z,79.40
2017-12-23T11:50:48.374Z,79.80
2017-12-23T11:53:16.549Z,79.70
2017-12-23T11:55:44.736Z,79.70
2017-12-23T11:58:12.900Z,79.80
2017-12-23T12:00:41.157Z,79.30
2017-12-23T12:03:10.935Z,79.30
2017-12-23T12:05:41.121Z,79.30
2017-12-23T12:08:14.445Z,78.40
2017-12-23T12:10:43.232Z,78.10
2017-12-23T12:13:13.390Z,77.50
2017-12-23T12:15:43.177Z,78.00
2017-12-23T12:18:11.402Z,78.00
2017-12-23T12:20:39.832Z,77.70
2017-12-23T12:23:08.861Z,77.40
2017-12-23T12:25:37.319Z,77.10
2017-12-23T12:28:05.966Z,77.00
2017-12-23T12:30:36.713Z,77.30
2017-12-23T12:33:09.807Z,77.40
2017-12-23T12:35:40.833Z,77.40
2017-12-23T12:38:10.611Z,77.90
2017-12-23T12:40:39.508Z,78.50
2017-12-23T12:43:11.818Z,77.60
2017-12-23T12:45:42.513Z,77.50
2017-12-23T12:48:11.746Z,77.10
2017-12-23T12:50:41.893Z,77.10
2017-12-23T12:53:13.272Z,76.70
2017-12-23T12:55:43.417Z,76.80
2017-12-23T13:00:42.524Z,76.10
2017-12-23T13:03:12.748Z,76.70
2017-12-23T13:05:42.373Z,77.00
2017-12-23T13:08:10.871Z,76.90
2017-12-23T13:10:42.204Z,77.30
2017-12-23T13:13:11.538Z,77.40
2017-12-23T13:15:40.760Z,78.20
2017-12-23T13:18:11.966Z,77.90
2017-12-23T13:20:40.124Z,77.90
2017-12-23T13:23:09.739Z,78.70
2017-12-23T13:25:39.531Z,78.30
2017-12-23T13:28:08.612Z,78.70
2017-12-23T13:30:37.224Z,78.60
2017-12-23T13:33:08.885Z,78.50
2017-12-23T13:35:37.745Z,78.60
2017-12-23T13:38:05.913Z,78.90
2017-12-23T13:40:34.069Z,79.40
2017-12-23T13:43:07.519Z,79.30
2017-12-23T13:45:37.615Z,80.00
2017-12-23T13:48:06.572Z,80.00
2017-12-23T13:50:38.890Z,79.40
2017-12-23T13:53:10.221Z,79.20
2017-12-23T13:55:38.476Z,79.30
2017-12-23T13:58:06.745Z,79.10
2017-12-23T14:00:35.080Z,79.10
2017-12-23T14:03:03.793Z,79.00
2017-12-23T14:05:33.113Z,79.20
2017-12-23T14:08:04.204Z,78.60
2017-12-23T14:10:32.805Z,78.90
2017-12-23T14:13:01.846Z,78.40
2017-12-23T14:15:30.159Z,78.10
2017-12-23T14:17:59.822Z,78.30
2017-12-23T14:20:28.764Z,78.80
2017-12-23T14:22:59.700Z,77.60
2017-12-23T14:25:28.779Z,78.30
2017-12-23T14:27:59.916Z,78.70
2017-12-23T14:30:29.981Z,78.40
2017-12-23T14:32:59.482Z,79.10
2017-12-23T14:35:28.284Z,78.50
2017-12-23T14:37:59.969Z,79.00
2017-12-23T14:40:28.340Z,79.00
2017-12-23T14:42:57.255Z,79.00
2017-12-23T14:45:25.465Z,79.00
2017-12-23T14:47:55.083Z,78.70
2017-12-23T14:50:24.450Z,78.40
2017-12-23T14:52:52.692Z,78.40
2017-12-23T14:55:22.162Z,78.80
2017-12-23T14:57:52.249Z,79.00
2017-12-23T15:00:21.950Z,78.90
2017-12-23T15:02:50.671Z,79.00
2017-12-23T15:05:18.836Z,78.80
2017-12-23T15:07:47.024Z,78.50
2017-12-23T15:10:15.441Z,79.50
2017-12-23T15:12:44.394Z,79.80
2017-12-23T15:15:12.537Z,79.70
2017-12-23T15:17:40.936Z,79.20
2017-12-23T15:20:09.105Z,79.60
2017-12-23T15:22:37.305Z,79.60
2017-12-23T15:25:05.590Z,79.80
2017-12-23T15:27:34.080Z,79.50
2017-12-23T15:30:03.137Z,79.60
2017-12-23T15:32:31.432Z,79.60
2017-12-23T15:34:59.584Z,79.50
2017-12-23T15:37:28.443Z,79.80
2017-12-23T15:39:56.744Z,80.20
2017-12-23T15:42:25.048Z,79.90
2017-12-23T15:44:53.753Z,80.00
2017-12-23T15:47:22.267Z,80.00
2017-12-23T15:49:51.258Z,80.60
2017-12-23T15:52:20.426Z,80.40
2017-12-23T15:54:48.596Z,80.40
2017-12-23T15:57:16.784Z,80.10
2017-12-23T15:59:44.957Z,80.70
2017-12-23T16:02:13.177Z,80.40
2017-12-23T16:04:41.320Z,80.60
2017-12-23T16:07:10.232Z,80.40
2017-12-23T16:09:39.327Z,80.20
2017-12-23T16:12:07.477Z,80.20
2017-12-23T16:14:36.461Z,80.10
2017-12-23T16:17:04.659Z,80.10
2017-12-23T16:19:32.920Z,80.10
2017-12-23T16:22:01.166Z,80.10
2017-12-23T16:24:30.580Z,80.50
2017-12-23T16:26:59.370Z,80.40
2017-12-23T16:29:28.328Z,80.40
2017-12-23T16:31:56.489Z,80.40
2017-12-23T16:34:25.217Z,80.20
2017-12-23T16:36:53.442Z,80.20
2017-12-23T16:39:21.614Z,80.00
2017-12-23T16:41:49.786Z,79.80
2017-12-23T16:44:18.094Z,79.80
2017-12-23T16:46:46.378Z,79.90
2017-12-23T16:49:16.034Z,80.20
2017-12-23T16:51:45.076Z,80.20
2017-12-23T16:54:13.876Z,80.20
2017-12-23T16:56:42.341Z,80.00
2017-12-23T16:59:12.320Z,79.80
2017-12-23T17:01:41.383Z,80.10
2017-12-23T17:04:10.508Z,80.10
2017-12-23T17:06:38.867Z,79.90
2017-12-23T17:09:07.109Z,79.70
2017-12-23T17:11:35.389Z,79.90
2017-12-23T17:14:03.734Z,80.20
2017-12-23T17:16:31.957Z,80.00
2017-12-23T17:19:00.200Z,80.10
2017-12-23T17:21:28.486Z,79.70
2017-12-23T17:23:57.481Z,79.40
2017-12-23T17:26:25.754Z,79.40
2017-12-23T17:29:19.989Z,79.60
2017-12-23T17:31:48.436Z,79.40
2017-12-23T17:34:16.612Z,79.50
2017-12-23T17:36:45.658Z,79.70
2017-12-23T17:39:14.092Z,79.80
2017-12-23T17:41:42.548Z,79.70
2017-12-23T17:44:11.350Z,80.10
2017-12-23T17:46:39.519Z,80.10
2017-12-23T17:49:07.724Z,80.00
2017-12-23T17:51:35.869Z,79.80
2017-12-23T17:54:04.079Z,80.40
2017-12-23T17:56:32.569Z,79.60
2017-12-23T17:59:01.799Z,80.00
2017-12-23T18:01:31.008Z,80.10
2017-12-23T18:03:59.177Z,79.80
2017-12-23T18:06:27.380Z,79.60
2017-12-23T18:08:55.560Z,79.20
2017-12-23T18:11:23.713Z,79.50
2017-12-23T18:13:52.705Z,79.90
2017-12-23T18:16:21.109Z,80.40
2017-12-23T18:18:49.290Z,80.20
2017-12-23T18:21:17.458Z,79.80
2017-12-23T18:23:45.656Z,79.70
2017-12-23T18:26:14.621Z,79.50
2017-12-23T18:28:42.788Z,79.40
2017-12-23T18:31:10.984Z,79.90
2017-12-23T18:33:39.171Z,79.70
2017-12-23T18:36:07.344Z,80.00
2017-12-23T18:38:36.309Z,80.00
2017-12-23T18:41:04.715Z,80.00
2017-12-23T18:43:33.656Z,79.90
2017-12-23T18:46:01.877Z,79.90
2017-12-23T18:48:30.052Z,79.80
2017-12-23T18:50:58.396Z,79.70
2017-12-23T18:53:26.568Z,80.10
2017-12-23T18:55:54.721Z,79.90
2017-12-23T18:58:22.892Z,79.80
2017-12-23T19:00:51.313Z,79.90
2017-12-23T19:03:19.489Z,80.10
2017-12-23T19:05:47.699Z,79.80
2017-12-23T19:08:16.638Z,79.50
2017-12-23T19:10:44.818Z,79.60
2017-12-23T19:13:13.025Z,80.30
2017-12-23T19:15:41.200Z,80.10
2017-12-23T19:18:09.361Z,79.90
2017-12-23T19:20:37.559Z,79.70
2017-12-23T19:23:06.477Z,80.30
2017-12-23T19:25:34.656Z,80.20
2017-12-23T19:28:02.817Z,80.00
2017-12-23T19:30:31.040Z,79.60
2017-12-23T19:32:59.245Z,80.40
2017-12-23T19:35:27.564Z,80.70
2017-12-23T19:37:55.743Z,80.70
2017-12-23T19:40:23.932Z,81.30
2017-12-23T19:42:52.093Z,81.30
2017-12-23T19:45:20.277Z,81.10
2017-12-23T19:47:48.417Z,81.30
2017-12-23T19:50:16.584Z,81.60
2017-12-23T19:52:44.736Z,81.60
2017-12-23T19:55:12.908Z,81.50
2017-12-23T19:57:41.052Z,81.80
2017-12-23T20:00:09.230Z,81.90
2017-12-23T20:02:38.337Z,81.60
2017-12-23T20:05:06.538Z,81.50
2017-12-23T20:07:34.713Z,81.50
2017-12-23T20:10:03.655Z,81.60
2017-12-23T20:12:31.821Z,81.50
2017-12-23T20:15:00.101Z,81.70
2017-12-23T20:17:28.256Z,81.80
2017-12-23T20:19:56.455Z,81.20
2017-12-23T20:22:24.617Z,81.60
2017-12-23T20:24:52.819Z,81.30
2017-12-23T20:27:20.972Z,81.60
2017-12-23T20:29:49.144Z,81.50
2017-12-23T20:32:17.296Z,81.30
2017-12-23T20:34:45.532Z,81.80
2017-12-23T20:37:13.667Z,81.50
2017-12-23T20:39:41.868Z,81.40
2017-12-23T20:42:10.037Z,81.50
2017-12-23T20:44:38.298Z,81.80
2017-12-23T20:47:06.473Z,81.90
2017-12-23T20:49:34.644Z,81.30
2017-12-23T20:52:03.197Z,82.00
2017-12-23T20:54:32.137Z,81.90
2017-12-23T20:57:00.716Z,81.70
2017-12-23T20:59:28.881Z,81.10
2017-12-23T21:01:57.036Z,80.70
2017-12-23T21:04:25.237Z,81.30
2017-12-23T21:06:53.424Z,80.80
2017-12-23T21:09:21.596Z,80.70
2017-12-23T21:11:49.737Z,80.70
2017-12-23T21:14:17.926Z,80.60
2017-12-23T21:16:46.921Z,80.60
2017-12-23T21:19:15.093Z,80.60
2017-12-23T21:21:43.249Z,81.10
2017-12-23T21:24:11.400Z,81.30
2017-12-23T21:26:40.352Z,81.00
2017-12-23T21:29:08.514Z,81.00
2017-12-23T21:31:36.697Z,80.90
2017-12-23T21:34:04.856Z,81.40
2017-12-23T21:36:33.037Z,81.10
2017-12-23T21:39:01.209Z,81.10
2017-12-23T21:41:29.383Z,81.50
2017-12-23T21:43:57.533Z,81.20
2017-12-23T21:46:25.754Z,81.30
2017-12-23T21:48:53.909Z,81.10
2017-12-23T21:51:22.078Z,81.20
2017-12-23T21:53:50.909Z,81.70
2017-12-23T21:56:19.877Z,81.60
2017-12-23T21:58:48.940Z,81.50
2017-12-23T22:01:17.751Z,81.50
2017-12-23T22:03:49.021Z,81.70
2017-12-23T22:06:18.085Z,81.60
2017-12-23T22:09:05.840Z,80.60
2017-12-23T22:11:35.116Z,81.20
2017-12-23T22:14:07.228Z,81.50
2017-12-23T22:16:37.338Z,81.60
2017-12-23T22:19:06.728Z,81.60
2017-12-23T22:21:35.858Z,82.00
2017-12-23T22:24:06.344Z,82.40
2017-12-23T22:26:35.089Z,82.40
2017-12-23T22:29:03.968Z,82.30
2017-12-23T22:31:32.675Z,82.30
2017-12-23T22:34:01.969Z,82.60
2017-12-23T22:36:30.902Z,82.80
2017-12-23T22:39:02.418Z,83.10
2017-12-23T22:41:31.166Z,83.10
2017-12-23T22:43:59.633Z,82.70
2017-12-23T22:46:46.304Z,83.10
2017-12-23T22:49:22.697Z,83.00
2017-12-23T22:51:50.906Z,83.30
2017-12-23T22:54:19.159Z,83.00
2017-12-23T22:56:47.320Z,85.20
2017-12-23T22:59:15.554Z,84.60
2017-12-23T23:01:44.114Z,84.40
2017-12-23T23:04:14.890Z,84.90
2017-12-23T23:06:43.362Z,84.90
2017-12-23T23:09:12.283Z,85.00
2017-12-23T23:11:40.480Z,84.40
2017-12-23T23:14:08.652Z,84.90
2017-12-23T23:16:36.812Z,85.70
2017-12-23T23:19:05.240Z,85.30
2017-12-23T23:21:33.414Z,84.50
2017-12-23T23:24:01.572Z,84.90
2017-12-23T23:26:29.783Z,84.20
2017-12-23T23:28:58.692Z,83.80
2017-12-23T23:31:26.871Z,83.20
2017-12-23T23:33:55.138Z,83.80
2017-12-23T23:36:23.309Z,83.70
2017-12-23T23:38:51.453Z,83.40
2017-12-23T23:41:19.630Z,82.40
2017-12-23T23:43:48.572Z,81.80
2017-12-23T23:46:16.737Z,81.80
2017-12-23T23:48:44.876Z,82.00
2017-12-23T23:51:13.849Z,82.10
2017-12-23T23:53:42.007Z,82.10
2017-12-23T23:56:10.200Z,81.60
2017-12-23T23:58:38.336Z,81.70
